Dublin, Ireland

3:45 PM IST on October 01, 2014 (GMT +0100)
Ballygall Dublin | Change Station
CLOSE
Current Station
Personal Weather Station
Location: Glasnevin, DUBLIN
Elevation: 187 ft
Nearby Weather Stations

Elev 187 ft 53.39 °N, 6.28 °W | Updated 1 minute ago

Scattered Clouds
Scattered Clouds
61.9 °F
Feels Like 61.9 °F
N
1.0
Wind Variable Wind from ENE
Gusts 2.0 mph

Today
High -- | Low -- °F
--% Chance of Precip.
Yesterday
High -- | Low -- °F
Precip. -- in
7:26 AM 7:02 PM
Waxing Crescent, 48% visible
Pressure 30.30 in
Visibility 6.2 miles
Clouds Few 2600 ft
Scattered Clouds 5000 ft
Dew Point 46 °F
Humidity 57%
Rainfall 0.01 in
Snow Depth Not available.
UV 2 out of 12
Pollen Not available.
Air Quality Not available.
Flu Activity Not available.
METAR EIDW 011430Z 29014KT 9999 FEW026 SCT050 15/06 Q1026 NOSIG

More Conditions Fewer Conditions

Pressure 30.30 in
Visibility 6.2 miles
Clouds Few 2600 ft
Scattered Clouds 5000 ft
Dew Point 46 °F
Humidity 57%
Rainfall 0.01 in
Snow Depth Not available.
UV 2 out of 12
Pollen Not available.
Air Quality Not available.
Flu Activity Not available.
METAR EIDW 011430Z 29014KT 9999 FEW026 SCT050 15/06 Q1026 NOSIG

More Conditions Fewer Conditions

10-Day Weather Forecast

Almanac

Astronomy

Oct. 01, 2014 Rise Set
Actual Time 7:26 AM IST 7:02 PM IST
Civil Twilight 6:51 AM IST 7:36 PM IST
Nautical Twilight 6:10 AM IST 8:17 PM IST
Astronomical Twilight 5:29 AM IST 8:58 PM IST
Moon 2:53 PM IST 11:42 PM IST
Length of Visible Light 12h 45m
Length of Day
11h 35m
Tomorrow will be 4m 11s shorter.
Waxing Crescent, 48% of the Moon is Illuminated
Today
Waxing Crescent
Oct 1
First Quarter
Oct 8
Full
Oct 15
Last Quarter
Oct 23
New

Today's Extremes

Country Highs Country Lows

Community

WunderPhotos

Upload Photos

1,757,960 photos uploaded!

Nearby

Snow Depth

Not available.

Earthquake Activity

City Distance Mag. Time & Date
No recent earthquake activity has been reported nearby.
Minimum magnitude displayed is 2.5.

Coastal Water Temperatures

Place Temperature
No Stations Reporting

Nearby Weather Stations